KOLY/OLY METAR and TAF weather

Enter ICAO airport designator
Station Type Date Time Source
KOLY METAR 2020/11/27 14:15 UTC NOAA

KOLY 271415Z AUTO 13003KT 7SM SCT100 06/05 A3015 RMK AO2 T00550049


Station Type Date Time Source
KOLY Decoded METAR 2020/11/27 14:15 UTC NOAA

Olney-Noble, Olney-Noble Airport, IL, United States (KOLY) 38-43-19N 088-10-35W
Nov 27, 2020 - 09:15 AM EST / 2020.11.27 1415 UTC
Wind: from the SE (130 degrees) at 3 MPH (3 KT):0
Visibility: 7 mile(s):0
Sky conditions: partly cloudy
Temperature: 41.9 F (5.5 C)
Dew Point: 40.8 F (4.9 C)
Relative Humidity: 95%
Pressure (altimeter): 30.15 in. Hg (1020 hPa)
ob: KOLY 271415Z AUTO 13003KT 7SM SCT100 06/05 A3015 RMK AO2 T00550049
cycle: 14

Station Type Date Time Source
KOLY TAF UTC NOAA

Error!

Example: see airport list